Vandalia, Montana
Current Conditions -  °F | °C
As of 7:53 PM on Wednesday 22 Oct 2014 (Local Time) from KGGW Reporting Station
Clear Clear  
Wind Chill: 52°   Ceiling: Unl
Heat Index: 52°   Visibility: 10mi
Dew Point: 31°   Wind: 3mph
Humidity: 45%   Direction: 260°W
Pressure: 29.87"   Gusts: NA
Location:  48.35°N, 106.92°W
Report Text: KGGW 230153Z AUTO 26003KT 10SM CLR 11/M01 A2987 RMK AO2 SLP122 T01111006
Loading
Personal Weather Stations






























Interactive Weather Map
Tropical Storm Tracking
New forecast layout! Learn more

10-Day Weather Forecast

Advertisements
Track Severe Weather on mobile